createdAt,value
2022-08-16T00:02:25.483Z,99.90
2022-08-16T00:04:54.333Z,99.90
2022-08-16T00:07:28.992Z,99.90
2022-08-16T00:09:58.865Z,99.90
2022-08-16T00:12:30.684Z,99.90
2022-08-16T00:15:02.486Z,99.90
2022-08-16T00:17:56.601Z,99.90
2022-08-16T00:20:21.592Z,99.90
2022-08-16T00:22:53.389Z,99.90
2022-08-16T00:26:33.290Z,99.90
2022-08-16T00:28:15.457Z,99.90
2022-08-16T00:30:44.862Z,99.90
2022-08-16T00:33:13.430Z,99.90
2022-08-16T00:35:41.965Z,99.90
2022-08-16T00:38:41.282Z,99.90
2022-08-16T00:41:02.083Z,99.90
2022-08-16T00:43:42.549Z,99.90
2022-08-16T00:46:33.102Z,99.90
2022-08-16T00:49:05.652Z,99.90
2022-08-16T00:51:35.488Z,99.90
2022-08-16T00:54:08.043Z,99.90
2022-08-16T00:56:58.538Z,99.90
2022-08-16T00:59:33.117Z,99.90
2022-08-16T01:02:31.270Z,99.90
2022-08-16T01:05:10.302Z,99.90
2022-08-16T01:07:50.630Z,99.90
2022-08-16T01:10:20.359Z,99.90
2022-08-16T01:12:49.190Z,99.80
2022-08-16T01:15:20.308Z,99.90
2022-08-16T01:17:56.189Z,99.90
2022-08-16T01:20:30.428Z,99.70
2022-08-16T01:23:08.500Z,99.70
2022-08-16T01:25:42.096Z,99.70
2022-08-16T01:28:19.645Z,99.50
2022-08-16T01:30:55.411Z,98.90
2022-08-16T01:33:25.516Z,98.60
2022-08-16T01:36:12.077Z,98.70
2022-08-16T01:38:48.842Z,98.50
2022-08-16T01:41:25.370Z,98.10
2022-08-16T01:43:56.452Z,98.00
2022-08-16T01:46:39.195Z,97.90
2022-08-16T01:49:43.630Z,97.90
2022-08-16T01:52:29.231Z,97.80
2022-08-16T01:55:26.169Z,97.50
2022-08-16T01:58:07.364Z,97.20
2022-08-16T02:00:41.178Z,97.00
2022-08-16T02:03:12.601Z,97.30
2022-08-16T02:05:42.964Z,97.70
2022-08-16T02:08:33.420Z,97.70
2022-08-16T02:11:06.250Z,98.10
2022-08-16T02:13:41.902Z,98.20
2022-08-16T02:16:18.373Z,98.20
2022-08-16T02:18:49.299Z,98.20
2022-08-16T02:21:31.248Z,97.70
2022-08-16T02:24:00.702Z,97.30
2022-08-16T02:26:29.684Z,97.00
2022-08-16T02:29:04.874Z,96.60
2022-08-16T02:32:03.282Z,96.40
2022-08-16T02:34:34.691Z,96.10
2022-08-16T02:37:11.030Z,96.00
2022-08-16T02:39:41.476Z,96.00
2022-08-16T02:42:10.501Z,96.30
2022-08-16T02:44:43.206Z,96.70
2022-08-16T02:47:12.610Z,97.20
2022-08-16T02:49:59.250Z,97.50
2022-08-16T02:52:43.904Z,98.40
2022-08-16T02:55:15.619Z,98.90
2022-08-16T02:57:54.400Z,99.50
2022-08-16T03:00:33.800Z,99.90
2022-08-16T03:03:05.306Z,99.90
2022-08-16T03:05:39.562Z,99.90
2022-08-16T03:08:52.677Z,99.90
2022-08-16T03:11:00.946Z,99.90
2022-08-16T03:13:30.508Z,99.90
2022-08-16T03:16:32.880Z,99.90
2022-08-16T03:19:01.786Z,99.90
2022-08-16T03:21:37.723Z,99.90
2022-08-16T03:24:28.921Z,99.90
2022-08-16T03:27:02.950Z,99.90
2022-08-16T03:29:34.709Z,99.90
2022-08-16T03:32:07.510Z,99.90
2022-08-16T03:34:36.585Z,99.90
2022-08-16T03:37:06.081Z,99.90
2022-08-16T03:39:42.830Z,99.90
2022-08-16T03:42:12.170Z,99.90
2022-08-16T03:44:49.786Z,99.90
2022-08-16T03:47:22.840Z,99.90
2022-08-16T03:49:53.588Z,99.90
2022-08-16T03:52:31.491Z,99.90
2022-08-16T03:55:02.419Z,99.90
2022-08-16T03:57:35.734Z,99.90
2022-08-16T04:00:35.509Z,99.90
2022-08-16T04:03:18.733Z,99.90
2022-08-16T04:05:51.253Z,99.90
2022-08-16T04:08:24.703Z,99.90
2022-08-16T04:11:00.302Z,99.90
2022-08-16T04:14:00.655Z,99.90
2022-08-16T04:16:27.263Z,99.90
2022-08-16T04:19:04.701Z,99.90
2022-08-16T04:21:47.310Z,99.90
2022-08-16T04:24:18.282Z,99.90
2022-08-16T04:26:48.353Z,99.90
2022-08-16T04:29:24.450Z,99.90
2022-08-16T04:31:58.036Z,99.90
2022-08-16T04:34:37.190Z,99.90
2022-08-16T04:37:07.519Z,99.90
2022-08-16T04:39:47.242Z,99.90
2022-08-16T04:42:29.578Z,99.90
2022-08-16T04:45:01.952Z,99.90
2022-08-16T04:47:36.134Z,99.90
2022-08-16T04:50:16.323Z,99.90
2022-08-16T04:53:05.882Z,99.90
2022-08-16T04:55:38.850Z,99.90
2022-08-16T04:58:43.611Z,99.90
2022-08-16T05:01:00.307Z,99.90
2022-08-16T05:03:30.065Z,99.90
2022-08-16T05:06:04.903Z,99.90
2022-08-16T05:08:34.858Z,99.90
2022-08-16T05:11:19.932Z,99.90
2022-08-16T05:13:50.889Z,99.90
2022-08-16T05:16:30.026Z,99.90
2022-08-16T05:19:11.562Z,99.90
2022-08-16T05:21:52.055Z,99.90
2022-08-16T05:24:24.524Z,99.90
2022-08-16T05:26:54.558Z,99.90
2022-08-16T05:29:59.944Z,99.90
2022-08-16T05:32:32.722Z,99.90
2022-08-16T05:35:11.057Z,99.90
2022-08-16T05:37:46.980Z,99.90
2022-08-16T05:40:19.111Z,99.90
2022-08-16T05:42:51.358Z,99.90
2022-08-16T05:45:24.343Z,99.90
2022-08-16T05:47:59.598Z,99.90
2022-08-16T05:50:37.487Z,99.90
2022-08-16T05:53:12.106Z,99.90
2022-08-16T05:55:54.875Z,99.90
2022-08-16T05:58:33.094Z,99.70
2022-08-16T06:01:03.848Z,99.10
2022-08-16T06:03:37.550Z,98.70
2022-08-16T06:06:13.877Z,98.40
2022-08-16T06:08:58.456Z,98.10
2022-08-16T06:11:27.591Z,98.10
2022-08-16T06:14:01.436Z,97.70
2022-08-16T06:16:37.882Z,96.90
2022-08-16T06:19:07.252Z,96.10
2022-08-16T06:21:45.353Z,95.80
2022-08-16T06:24:54.476Z,95.60
2022-08-16T06:27:04.725Z,95.30
2022-08-16T06:29:35.143Z,95.20
2022-08-16T06:32:05.422Z,94.90
2022-08-16T06:34:55.555Z,94.60
2022-08-16T06:37:27.484Z,94.20
2022-08-16T06:40:16.155Z,93.60
2022-08-16T06:42:57.354Z,93.50
2022-08-16T06:45:38.225Z,93.10
2022-08-16T06:48:33.223Z,92.70
2022-08-16T06:51:06.275Z,92.20
2022-08-16T06:53:36.886Z,92.20
2022-08-16T06:56:14.022Z,92.10
2022-08-16T06:58:58.147Z,92.30
2022-08-16T07:01:43.404Z,91.90
2022-08-16T07:04:32.445Z,91.80
2022-08-16T07:07:17.392Z,91.70
2022-08-16T07:09:49.805Z,91.50
2022-08-16T07:12:22.170Z,91.40
2022-08-16T07:15:08.457Z,91.40
2022-08-16T07:17:46.249Z,91.20
2022-08-16T07:20:35.517Z,91.00
2022-08-16T07:23:14.219Z,90.90
2022-08-16T07:25:50.891Z,90.70
2022-08-16T07:28:24.382Z,90.70
2022-08-16T07:30:56.003Z,90.30
2022-08-16T07:33:51.948Z,90.20
2022-08-16T07:36:26.507Z,89.90
2022-08-16T07:38:58.100Z,89.90
2022-08-16T07:41:29.661Z,89.60
2022-08-16T07:44:15.596Z,89.40
2022-08-16T07:46:46.437Z,88.90
2022-08-16T07:49:23.900Z,88.50
2022-08-16T07:51:55.973Z,88.50
2022-08-16T07:54:37.805Z,88.40
2022-08-16T07:57:12.479Z,88.10
2022-08-16T07:59:46.117Z,88.00
2022-08-16T08:02:20.026Z,87.60
2022-08-16T08:04:54.717Z,87.60
2022-08-16T08:07:27.584Z,87.50
2022-08-16T08:09:59.438Z,87.10
2022-08-16T08:12:32.694Z,87.10
2022-08-16T08:15:11.955Z,86.50
2022-08-16T08:17:44.042Z,86.60
2022-08-16T08:20:28.467Z,86.30
2022-08-16T08:23:01.670Z,85.90
2022-08-16T08:25:54.082Z,86.00
2022-08-16T08:28:27.240Z,86.00
2022-08-16T08:31:09.673Z,85.70
2022-08-16T08:33:47.556Z,85.70
2022-08-16T08:36:33.047Z,85.70
2022-08-16T08:39:16.344Z,85.60
2022-08-16T08:41:52.855Z,84.50
2022-08-16T08:44:29.174Z,83.90
2022-08-16T08:47:12.106Z,84.00
2022-08-16T08:49:46.514Z,83.70
2022-08-16T08:52:34.335Z,83.70
2022-08-16T08:55:10.349Z,83.50
2022-08-16T08:57:41.184Z,83.70
2022-08-16T09:00:51.338Z,84.00
2022-08-16T09:03:23.550Z,83.30
2022-08-16T09:05:59.179Z,83.30
2022-08-16T09:08:31.874Z,83.20
2022-08-16T09:11:08.430Z,83.20
2022-08-16T09:13:47.219Z,82.40
2022-08-16T09:17:03.675Z,82.30
2022-08-16T09:19:10.288Z,82.20
2022-08-16T09:21:39.188Z,81.60
2022-08-16T09:24:09.847Z,81.10
2022-08-16T09:26:45.698Z,81.20
2022-08-16T09:29:24.191Z,80.50
2022-08-16T09:32:04.726Z,79.70
2022-08-16T09:39:42.092Z,79.30
2022-08-16T09:58:10.622Z,70.90
2022-08-16T10:20:54.679Z,67.60
2022-08-16T10:43:26.170Z,64.60
2022-08-16T10:46:01.254Z,64.20
2022-08-16T10:49:31.546Z,64.40
2022-08-16T10:52:18.102Z,64.50
2022-08-16T10:54:59.778Z,64.10
2022-08-16T10:57:41.248Z,62.20
2022-08-16T11:00:20.862Z,61.00
2022-08-16T11:02:57.956Z,59.70
2022-08-16T11:08:35.677Z,59.20
2022-08-16T11:11:11.824Z,59.60
2022-08-16T11:14:06.123Z,59.30
2022-08-16T11:19:25.936Z,57.90
2022-08-16T11:22:38.511Z,57.40
2022-08-16T11:24:46.081Z,57.20
2022-08-16T11:27:35.846Z,57.00
2022-08-16T11:30:09.158Z,57.20
2022-08-16T11:32:44.439Z,57.60
2022-08-16T11:35:17.224Z,57.40
2022-08-16T11:40:44.103Z,56.40
2022-08-16T11:43:16.971Z,55.80
2022-08-16T11:45:53.541Z,55.70
2022-08-16T11:48:25.080Z,54.90
2022-08-16T11:50:54.946Z,53.90
2022-08-16T11:53:24.588Z,54.60
2022-08-16T11:55:57.054Z,54.20
2022-08-16T11:58:28.344Z,54.10
2022-08-16T12:00:59.435Z,54.10
2022-08-16T12:03:35.158Z,53.60
2022-08-16T12:06:10.633Z,53.70
2022-08-16T12:08:39.626Z,53.70
2022-08-16T12:11:12.215Z,52.90
2022-08-16T12:13:44.403Z,52.70
2022-08-16T12:16:22.890Z,53.20
2022-08-16T12:19:13.678Z,53.90
2022-08-16T12:21:58.487Z,52.40
2022-08-16T12:24:30.053Z,53.40
2022-08-16T12:27:11.217Z,52.50
2022-08-16T12:29:43.883Z,51.90
2022-08-16T12:32:38.421Z,51.30
2022-08-16T12:35:09.080Z,51.30
2022-08-16T12:37:41.484Z,51.20
2022-08-16T12:40:38.735Z,51.90
2022-08-16T12:43:15.076Z,53.80
2022-08-16T12:45:47.328Z,55.90
2022-08-16T12:48:39.130Z,58.30
2022-08-16T12:51:22.183Z,58.40
2022-08-16T12:53:56.710Z,59.40
2022-08-16T12:56:28.241Z,60.60
2022-08-16T12:58:59.525Z,60.70
2022-08-16T13:01:30.711Z,60.90
2022-08-16T13:04:19.654Z,60.50
2022-08-16T13:06:52.865Z,60.00
2022-08-16T13:09:26.204Z,59.90
2022-08-16T13:12:03.642Z,60.40
2022-08-16T13:14:39.261Z,60.30
2022-08-16T13:17:18.560Z,58.40
2022-08-16T13:20:08.030Z,56.20
2022-08-16T13:25:12.280Z,57.80
2022-08-16T13:28:02.096Z,58.00
2022-08-16T13:30:41.911Z,57.20
2022-08-16T13:33:15.784Z,54.30
2022-08-16T13:35:55.730Z,52.50
2022-08-16T13:38:39.884Z,51.00
2022-08-16T13:41:15.819Z,49.50
2022-08-16T13:43:45.613Z,50.10
2022-08-16T13:46:32.374Z,51.40
2022-08-16T13:49:01.539Z,53.20
2022-08-16T13:51:31.954Z,55.10
2022-08-16T13:54:04.718Z,56.00
2022-08-16T13:56:40.432Z,55.80
2022-08-16T13:59:21.153Z,54.90
2022-08-16T14:01:55.624Z,52.80
2022-08-16T14:04:31.515Z,52.10
2022-08-16T14:07:03.802Z,52.10
2022-08-16T14:09:43.507Z,51.20
2022-08-16T14:12:20.838Z,50.80
2022-08-16T14:14:54.534Z,50.50
2022-08-16T14:17:26.618Z,51.90
2022-08-16T14:19:59.613Z,52.60
2022-08-16T14:22:35.888Z,53.90
2022-08-16T14:25:16.443Z,56.10
2022-08-16T14:27:45.697Z,56.80
2022-08-16T14:43:07.130Z,49.40
2022-08-16T14:45:50.873Z,48.90
2022-08-16T14:49:17.673Z,50.00
2022-08-16T14:52:56.201Z,50.00
2022-08-16T14:55:08.756Z,51.40
2022-08-16T14:59:01.027Z,53.00
2022-08-16T15:02:09.665Z,54.70
2022-08-16T15:04:47.911Z,55.80
2022-08-16T15:08:36.295Z,55.40
2022-08-16T15:10:51.733Z,55.50
2022-08-16T15:13:55.929Z,55.00
2022-08-16T15:16:31.182Z,54.40
2022-08-16T15:19:29.266Z,53.50
2022-08-16T15:22:19.990Z,52.20
2022-08-16T15:25:41.279Z,51.90
2022-08-16T15:31:32.295Z,50.30
2022-08-16T15:34:13.177Z,49.50
2022-08-16T15:36:50.928Z,49.30
2022-08-16T15:39:27.888Z,50.20
2022-08-16T15:42:11.072Z,50.40
2022-08-16T15:44:51.980Z,51.60
2022-08-16T15:47:26.315Z,52.20
2022-08-16T15:49:58.046Z,53.20
2022-08-16T15:52:32.489Z,53.50
2022-08-16T15:55:23.706Z,54.30
2022-08-16T15:58:01.020Z,54.50
2022-08-16T16:01:01.888Z,55.10
2022-08-16T16:03:39.386Z,55.20
2022-08-16T16:06:08.641Z,55.10
2022-08-16T16:08:39.013Z,55.50
2022-08-16T16:11:12.235Z,56.00
2022-08-16T16:13:43.377Z,56.30
2022-08-16T16:16:19.414Z,56.70
2022-08-16T16:18:52.564Z,57.10
2022-08-16T16:21:25.970Z,57.10
2022-08-16T16:24:03.252Z,57.20
2022-08-16T16:26:51.416Z,57.10
2022-08-16T16:29:20.803Z,57.20
2022-08-16T16:31:59.574Z,56.80
2022-08-16T16:34:32.406Z,56.40
2022-08-16T16:37:04.900Z,56.20
2022-08-16T16:39:43.069Z,55.20
2022-08-16T16:42:29.720Z,54.60
2022-08-16T16:45:03.127Z,54.20
2022-08-16T16:47:41.853Z,53.70
2022-08-16T16:50:18.891Z,53.20
2022-08-16T16:52:59.494Z,52.50
2022-08-16T16:55:39.077Z,50.00
2022-08-16T16:58:40.479Z,48.60
2022-08-16T17:01:35.204Z,48.00
2022-08-16T17:04:37.382Z,47.80
2022-08-16T17:07:30.012Z,47.50
2022-08-16T17:10:08.406Z,48.00
2022-08-16T17:12:56.668Z,47.50
2022-08-16T17:15:50.148Z,46.80
2022-08-16T17:19:15.561Z,47.60
2022-08-16T17:21:24.291Z,47.80
2022-08-16T17:24:01.956Z,48.00
2022-08-16T17:27:05.104Z,48.70
2022-08-16T17:30:15.569Z,50.80
2022-08-16T17:36:36.322Z,53.50
2022-08-16T17:39:13.703Z,54.60
2022-08-16T17:42:17.772Z,55.30
2022-08-16T17:45:02.446Z,56.70
2022-08-16T17:49:22.741Z,57.00
2022-08-16T17:50:45.230Z,57.50
2022-08-16T17:54:20.279Z,58.20
2022-08-16T17:57:30.428Z,58.40
2022-08-16T18:00:20.614Z,58.90
2022-08-16T18:02:51.991Z,59.50
2022-08-16T18:16:29.181Z,62.20
2022-08-16T18:29:06.622Z,64.00
2022-08-16T18:35:16.642Z,64.50
2022-08-16T18:38:30.303Z,65.20
2022-08-16T18:42:21.155Z,65.30
2022-08-16T18:45:00.009Z,65.60
2022-08-16T18:47:57.132Z,66.00
2022-08-16T19:10:19.524Z,69.20
2022-08-16T19:24:44.774Z,72.70
2022-08-16T19:28:50.044Z,73.40
2022-08-16T19:31:43.930Z,74.20
2022-08-16T19:34:43.248Z,75.20
2022-08-16T19:38:07.202Z,76.20
2022-08-16T19:40:59.412Z,76.60
2022-08-16T19:43:51.670Z,77.20
2022-08-16T19:47:19.006Z,77.90
2022-08-16T19:50:40.933Z,78.40
2022-08-16T19:53:39.309Z,79.30
2022-08-16T19:57:33.281Z,79.70
2022-08-16T20:05:20.376Z,80.60
2022-08-16T20:08:04.703Z,81.30
2022-08-16T20:10:52.478Z,81.70
2022-08-16T20:14:05.646Z,82.20
2022-08-16T20:17:41.373Z,82.20
2022-08-16T20:23:42.785Z,82.30
2022-08-16T20:27:00.285Z,82.20
2022-08-16T20:29:58.848Z,82.20
2022-08-16T20:32:52.717Z,82.40
2022-08-16T20:35:31.385Z,83.20
2022-08-16T20:38:07.491Z,83.70
2022-08-16T20:41:41.327Z,83.40
2022-08-16T20:44:59.971Z,83.30
2022-08-16T20:47:45.630Z,83.20
2022-08-16T20:50:23.751Z,83.10
2022-08-16T20:53:33.676Z,83.40
2022-08-16T20:56:03.809Z,83.70
2022-08-16T20:58:34.487Z,83.70
2022-08-16T21:01:04.909Z,83.40
2022-08-16T21:03:34.820Z,83.40
2022-08-16T21:06:04.536Z,83.50
2022-08-16T21:08:51.811Z,82.90
2022-08-16T21:11:23.876Z,81.50
2022-08-16T21:14:00.584Z,81.10
2022-08-16T21:16:30.228Z,81.50
2022-08-16T21:19:02.376Z,81.30
2022-08-16T21:21:33.634Z,82.10
2022-08-16T21:24:04.734Z,82.30
2022-08-16T21:26:39.001Z,82.70
2022-08-16T21:29:11.259Z,82.60
2022-08-16T21:31:46.185Z,82.40
2022-08-16T21:34:19.028Z,82.40
2022-08-16T21:36:49.232Z,82.60
2022-08-16T21:39:21.495Z,82.80
2022-08-16T21:41:50.432Z,83.70
2022-08-16T21:44:19.400Z,83.40
2022-08-16T21:46:48.875Z,83.70
2022-08-16T21:49:18.342Z,84.10
2022-08-16T21:51:48.225Z,84.10
2022-08-16T21:54:23.954Z,84.20
2022-08-16T21:56:53.258Z,84.40
2022-08-16T21:59:24.952Z,84.30
2022-08-16T22:01:54.634Z,83.70
2022-08-16T22:04:37.229Z,83.20
2022-08-16T22:07:09.554Z,83.00
2022-08-16T22:09:43.330Z,83.40
2022-08-16T22:12:21.474Z,83.70
2022-08-16T22:14:52.933Z,82.80
2022-08-16T22:17:21.998Z,83.10
2022-08-16T22:19:52.281Z,83.50
2022-08-16T22:22:21.343Z,84.10
2022-08-16T22:24:51.770Z,84.50
2022-08-16T22:27:20.436Z,84.50
2022-08-16T22:29:49.107Z,85.10
2022-08-16T22:32:17.997Z,85.40
2022-08-16T22:34:46.952Z,86.30
2022-08-16T22:37:16.077Z,86.50
2022-08-16T22:39:45.084Z,87.10
2022-08-16T22:42:15.463Z,86.80
2022-08-16T22:44:46.254Z,86.60
2022-08-16T22:47:15.519Z,87.30
2022-08-16T22:49:44.242Z,87.50
2022-08-16T22:52:12.956Z,88.00
2022-08-16T22:55:03.160Z,88.40
2022-08-16T22:57:33.230Z,88.90
2022-08-16T23:00:02.159Z,89.20
2022-08-16T23:02:31.221Z,88.90
2022-08-16T23:05:00.523Z,89.40
2022-08-16T23:07:29.334Z,90.20
2022-08-16T23:09:58.493Z,90.60
2022-08-16T23:12:29.763Z,90.60
2022-08-16T23:15:04.394Z,90.80
2022-08-16T23:17:34.157Z,90.90
2022-08-16T23:20:03.306Z,91.40
2022-08-16T23:23:21.184Z,91.60
2022-08-16T23:25:35.585Z,91.40
2022-08-16T23:28:04.951Z,91.40
2022-08-16T23:30:40.586Z,91.50
2022-08-16T23:33:12.851Z,91.20
2022-08-16T23:35:45.757Z,91.70
2022-08-16T23:38:37.571Z,91.20
2022-08-16T23:41:05.613Z,90.50
2022-08-16T23:43:41.992Z,90.40
2022-08-16T23:46:15.222Z,90.10
2022-08-16T23:49:56.551Z,89.80
2022-08-16T23:51:33.761Z,89.50
2022-08-16T23:54:02.727Z,88.90
2022-08-16T23:56:40.165Z,88.50
2022-08-16T23:59:09.461Z,88.30
